Time;durP1;ratioP1;P1;durP2;ratioP2;P2;SDS_P1;SDS_P2;PMS_P1;PMS_P2;Temp;Humidity;BMP_temperature;BMP_pressure;BME280_temperature;BME280_humidity;BME280_pressure;Samples;Min_cycle;Max_cycle;Signal;HPM_P1;HPM_P2
2021/08/01 00:02:16;;;;;;;11.77;8.40;;;15.70;93.00;;;;;;5072719;28;20175;-86
2021/08/01 00:04:42;;;;;;;14.67;8.37;;;15.70;93.00;;;;;;5054700;28;20694;-86
2021/08/01 00:07:08;;;;;;;11.40;8.63;;;15.70;93.00;;;;;;5054692;28;20562;-86
2021/08/01 00:09:34;;;;;;;14.10;10.33;;;15.70;92.90;;;;;;5054682;28;20262;-86
2021/08/01 00:11:59;;;;;;;15.17;9.23;;;15.70;92.90;;;;;;5054689;28;20640;-86
2021/08/01 00:14:25;;;;;;;14.80;10.37;;;15.70;93.00;;;;;;5054688;28;20187;-86
2021/08/01 00:16:51;;;;;;;17.23;12.03;;;15.70;92.80;;;;;;5072618;28;20176;-86
2021/08/01 00:19:16;;;;;;;14.67;11.47;;;15.70;92.80;;;;;;5072615;28;20536;-85
2021/08/01 00:21:42;;;;;;;16.63;11.37;;;15.70;92.90;;;;;;5072520;28;20245;-86
2021/08/01 00:24:08;;;;;;;15.07;11.03;;;15.70;92.80;;;;;;5054387;28;20211;-86
2021/08/01 00:26:33;;;;;;;17.60;11.20;;;15.70;92.80;;;;;;5054543;28;20241;-86
2021/08/01 00:28:59;;;;;;;14.63;10.03;;;15.70;92.50;;;;;;5072525;28;20167;-85
2021/08/01 00:31:25;;;;;;;11.37;9.67;;;15.80;92.40;;;;;;5057843;28;20306;-84
2021/08/01 00:33:50;;;;;;;14.17;9.43;;;15.70;92.40;;;;;;5076044;28;20194;-85
2021/08/01 00:36:16;;;;;;;13.80;9.30;;;15.70;92.40;;;;;;5075832;28;20171;-85
2021/08/01 00:38:42;;;;;;;14.10;9.07;;;15.80;92.40;;;;;;5057882;28;20174;-85
2021/08/01 00:41:07;;;;;;;9.93;7.40;;;15.80;92.40;;;;;;5057835;28;20266;-85
2021/08/01 00:43:33;;;;;;;10.90;6.63;;;15.70;92.40;;;;;;5057889;28;20233;-85
2021/08/01 00:45:59;;;;;;;11.33;7.90;;;15.70;92.40;;;;;;5075704;28;20279;-85
2021/08/01 00:48:26;;;;;;;11.17;7.87;;;15.70;92.30;;;;;;5057717;28;20175;-85
2021/08/01 00:50:53;;;;;;;11.83;9.03;;;15.70;92.40;;;;;;5075715;28;20174;-85
2021/08/01 00:53:19;;;;;;;14.33;8.83;;;15.70;92.30;;;;;;5075509;28;20572;-85
2021/08/01 00:55:45;;;;;;;19.23;9.50;;;15.70;92.30;;;;;;5057622;28;20171;-85
2021/08/01 00:58:11;;;;;;;19.73;9.63;;;15.70;92.40;;;;;;5075943;28;20168;-85
2021/08/01 01:03:36;;;;;;;15.20;8.77;;;15.70;92.70;;;;;;5075750;28;20313;-85
2021/08/01 01:06:08;;;;;;;13.40;8.13;;;15.60;92.70;;;;;;5057410;28;20171;-85
2021/08/01 01:08:37;;;;;;;15.63;9.30;;;15.60;92.70;;;;;;5075307;28;20535;-85
2021/08/01 01:11:04;;;;;;;12.00;8.07;;;15.60;92.60;;;;;;5057335;28;20257;-85
2021/08/01 01:13:37;;;;;;;16.17;9.30;;;15.70;92.60;;;;;;5057249;28;20313;-85
2021/08/01 01:16:03;;;;;;;17.77;9.00;;;15.70;92.60;;;;;;5057295;28;20175;-85
2021/08/01 01:18:35;;;;;;;17.10;9.63;;;15.70;92.50;;;;;;5075150;28;20640;-85
2021/08/01 01:21:09;;;;;;;10.43;9.33;;;15.70;92.50;;;;;;5075067;28;20152;-85
2021/08/01 01:23:50;;;;;;;16.57;10.20;;;15.70;92.50;;;;;;5080416;23;20241;-89
2021/08/01 01:26:26;;;;;;;17.47;10.17;;;15.60;92.60;;;;;;5074091;28;20203;-89
2021/08/01 01:29:18;;;;;;;16.60;10.10;;;15.70;92.70;;;;;;5074067;28;20163;-89
2021/08/01 01:31:47;;;;;;;12.20;9.17;;;15.70;92.70;;;;;;5065980;28;20215;-89
2021/08/01 01:34:23;;;;;;;13.47;9.50;;;15.70;92.80;;;;;;5073796;28;20191;-89
2021/08/01 01:36:51;;;;;;;14.10;9.67;;;15.60;92.90;;;;;;5057184;28;20178;-89
2021/08/01 01:39:19;;;;;;;11.47;9.00;;;15.60;92.90;;;;;;5056978;28;20171;-89
2021/08/01 01:41:47;;;;;;;18.23;10.63;;;15.60;92.80;;;;;;5056470;28;20203;-90
2021/08/01 01:44:13;;;;;;;15.37;9.40;;;15.70;92.80;;;;;;5056835;28;20221;-89
2021/08/01 01:46:41;;;;;;;12.50;9.60;;;15.60;92.70;;;;;;5056866;28;20236;-89
2021/08/01 01:49:10;;;;;;;15.80;9.20;;;15.60;92.80;;;;;;5056775;28;20179;-89
2021/08/01 01:51:36;;;;;;;11.30;9.23;;;15.60;93.00;;;;;;5056748;28;20214;-90
2021/08/01 01:54:03;;;;;;;13.00;9.33;;;15.60;93.10;;;;;;5056656;28;20195;-90
2021/08/01 01:56:31;;;;;;;12.20;9.77;;;15.60;93.30;;;;;;5057174;28;20623;-90
2021/08/01 01:58:57;;;;;;;15.20;9.53;;;15.60;93.40;;;;;;5056701;28;20179;-90
2021/08/01 02:01:23;;;;;;;15.10;9.87;;;15.60;93.50;;;;;;5056775;28;20167;-90
2021/08/01 02:03:50;;;;;;;13.63;9.10;;;15.60;93.70;;;;;;5056550;28;20611;-90
2021/08/01 02:06:16;;;;;;;13.70;9.57;;;15.60;93.70;;;;;;5056658;28;20262;-90
2021/08/01 02:08:57;;;;;;;15.03;9.23;;;15.60;93.70;;;;;;5057124;28;20198;-90
2021/08/01 02:11:29;;;;;;;12.70;9.67;;;15.60;93.80;;;;;;5056331;28;20216;-90
2021/08/01 02:14:15;;;;;;;13.07;8.67;;;15.60;93.60;;;;;;5056409;28;20294;-90
2021/08/01 02:16:46;;;;;;;10.97;9.10;;;15.60;93.70;;;;;;5056403;28;20201;-89
2021/08/01 02:19:13;;;;;;;10.43;8.50;;;15.60;93.80;;;;;;5056263;28;20167;-89
2021/08/01 02:21:41;;;;;;;9.83;6.77;;;15.60;93.70;;;;;;5056972;28;20179;-89
2021/08/01 02:24:07;;;;;;;10.77;5.97;;;15.60;93.70;;;;;;5056440;28;20219;-89
2021/08/01 02:26:35;;;;;;;9.80;3.77;;;15.60;93.60;;;;;;5056088;28;20670;-88
2021/08/01 02:29:02;;;;;;;6.23;3.80;;;15.40;93.30;;;;;;5056351;28;20658;-89
2021/08/01 02:31:28;;;;;;;4.20;3.40;;;15.40;93.20;;;;;;5056179;28;20182;-89
2021/08/01 02:33:54;;;;;;;10.77;3.40;;;15.30;93.10;;;;;;5056009;28;20229;-90
2021/08/01 02:36:22;;;;;;;6.40;3.10;;;15.30;92.90;;;;;;5056377;28;20627;-90
2021/08/01 02:38:52;;;;;;;8.13;2.93;;;15.20;92.90;;;;;;5055799;28;20205;-89
2021/08/01 02:41:34;;;;;;;4.80;3.20;;;15.20;93.00;;;;;;5055871;28;20168;-89
2021/08/01 02:44:06;;;;;;;5.83;3.33;;;15.20;93.10;;;;;;5056257;28;20261;-89
2021/08/01 02:46:33;;;;;;;8.97;3.80;;;15.20;92.90;;;;;;5056130;28;20552;-89
2021/08/01 02:49:02;;;;;;;7.07;3.40;;;15.10;92.90;;;;;;5055703;28;20186;-89
2021/08/01 02:51:29;;;;;;;7.63;3.57;;;15.20;93.00;;;;;;5055622;28;20172;-89
2021/08/01 02:53:56;;;;;;;8.23;2.60;;;15.20;93.10;;;;;;5054698;28;20187;-89
2021/08/01 02:56:24;;;;;;;4.40;2.70;;;15.20;93.30;;;;;;5055602;28;20168;-89
2021/08/01 02:58:52;;;;;;;4.90;3.10;;;15.30;93.30;;;;;;5055631;28;20176;-89
2021/08/01 03:01:18;;;;;;;7.00;3.97;;;15.30;93.10;;;;;;5055423;28;20599;-89
2021/08/01 03:03:45;;;;;;;12.17;4.40;;;15.30;92.90;;;;;;5055536;28;20282;-89
2021/08/01 03:06:14;;;;;;;6.47;4.77;;;15.30;93.00;;;;;;5055495;28;20171;-89
2021/08/01 03:08:40;;;;;;;8.53;5.73;;;15.20;92.80;;;;;;5055420;28;20172;-89
2021/08/01 03:11:06;;;;;;;9.63;4.73;;;15.20;92.70;;;;;;5055380;28;20186;-89
2021/08/01 03:13:32;;;;;;;10.67;5.00;;;15.30;92.70;;;;;;5055362;28;20210;-89
2021/08/01 03:15:57;;;;;;;7.80;5.30;;;15.20;92.50;;;;;;5055340;28;20306;-89
2021/08/01 03:18:23;;;;;;;16.30;5.77;;;15.20;92.60;;;;;;5055394;28;20527;-89
2021/08/01 03:20:49;;;;;;;11.07;4.90;;;15.20;92.50;;;;;;5055495;28;20631;-89
2021/08/01 03:23:15;;;;;;;6.50;4.43;;;15.20;92.40;;;;;;5055418;28;20182;-90
2021/08/01 03:25:40;;;;;;;11.10;5.50;;;15.20;92.20;;;;;;5055449;28;20179;-89
2021/08/01 03:28:06;;;;;;;15.03;5.20;;;15.20;92.30;;;;;;5055342;28;20202;-89
2021/08/01 03:30:31;;;;;;;6.03;4.40;;;15.20;92.40;;;;;;5055385;28;20178;-89
2021/08/01 03:32:57;;;;;;;12.97;5.00;;;15.20;92.30;;;;;;5055134;28;20257;-89
2021/08/01 03:35:24;;;;;;;9.37;5.23;;;15.20;92.40;;;;;;5055416;28;20221;-89
2021/08/01 03:37:49;;;;;;;9.17;5.93;;;15.20;92.60;;;;;;5055168;28;20643;-89
2021/08/01 03:40:16;;;;;;;11.40;5.27;;;15.20;92.70;;;;;;5055106;28;20233;-89
2021/08/01 03:42:42;;;;;;;9.77;5.30;;;15.10;92.80;;;;;;5055120;28;20179;-89
2021/08/01 03:45:11;;;;;;;14.90;5.80;;;15.20;92.90;;;;;;5055073;28;20201;-89
2021/08/01 03:47:38;;;;;;;14.63;5.37;;;15.20;93.00;;;;;;5055131;28;20178;-89
2021/08/01 03:50:04;;;;;;;13.40;5.80;;;15.20;93.00;;;;;;5055068;28;20183;-89
2021/08/01 03:52:30;;;;;;;12.93;6.63;;;15.20;93.10;;;;;;5055290;28;20203;-89
2021/08/01 03:54:56;;;;;;;12.67;6.77;;;15.30;93.10;;;;;;5054926;28;20256;-89
2021/08/01 03:57:22;;;;;;;13.83;8.10;;;15.30;93.10;;;;;;5055001;28;20167;-89
2021/08/01 03:59:47;;;;;;;13.60;8.10;;;15.30;93.00;;;;;;5054920;28;20728;-88
2021/08/01 04:02:13;;;;;;;14.53;8.40;;;15.30;93.10;;;;;;5054924;28;20592;-89
2021/08/01 04:04:39;;;;;;;20.80;8.83;;;15.30;93.10;;;;;;5057039;28;20238;-89
2021/08/01 04:07:05;;;;;;;19.60;9.43;;;15.30;93.10;;;;;;5058724;28;20175;-89
2021/08/01 04:09:31;;;;;;;15.57;9.60;;;15.30;93.10;;;;;;5058732;28;20186;-89
2021/08/01 04:11:57;;;;;;;14.63;9.10;;;15.30;93.20;;;;;;5058461;28;20203;-89
2021/08/01 04:14:24;;;;;;;20.10;10.27;;;15.30;93.20;;;;;;5058542;28;20191;-89
2021/08/01 04:16:49;;;;;;;15.73;10.63;;;15.30;93.30;;;;;;5058848;28;20178;-89
2021/08/01 04:19:15;;;;;;;19.03;11.63;;;15.30;93.40;;;;;;5058820;28;20167;-89
2021/08/01 04:21:42;;;;;;;20.13;11.90;;;15.30;93.40;;;;;;5058420;28;20176;-89
2021/08/01 04:24:08;;;;;;;23.57;12.60;;;15.30;93.50;;;;;;5058260;28;20256;-89
2021/08/01 04:26:33;;;;;;;27.00;13.40;;;15.30;93.50;;;;;;5058449;28;20175;-89
2021/08/01 04:28:59;;;;;;;22.40;14.03;;;15.30;93.50;;;;;;5058336;28;20175;-89
2021/08/01 04:31:25;;;;;;;25.73;16.60;;;15.40;93.50;;;;;;5058357;28;20203;-89
2021/08/01 04:33:51;;;;;;;23.93;14.93;;;15.40;93.50;;;;;;5059009;28;20215;-89
2021/08/01 04:36:17;;;;;;;24.83;16.63;;;15.40;93.60;;;;;;5058127;28;20182;-89
2021/08/01 04:38:42;;;;;;;25.20;15.37;;;15.40;93.60;;;;;;5058155;28;20171;-89
2021/08/01 04:41:08;;;;;;;30.63;16.13;;;15.40;93.70;;;;;;5058380;28;20253;-89
2021/08/01 04:43:34;;;;;;;30.37;16.03;;;15.40;93.70;;;;;;5058258;28;20227;-89
2021/08/01 04:45:59;;;;;;;26.67;16.50;;;15.50;93.70;;;;;;5058102;28;20183;-89
2021/08/01 04:48:25;;;;;;;23.20;16.33;;;15.40;93.70;;;;;;5057970;28;20182;-89
2021/08/01 04:50:51;;;;;;;28.50;16.37;;;15.40;93.70;;;;;;5057930;28;20175;-89
2021/08/01 04:53:17;;;;;;;28.07;16.40;;;15.40;93.70;;;;;;5057829;28;20230;-90
2021/08/01 04:55:43;;;;;;;31.23;17.00;;;15.50;93.70;;;;;;5057880;28;20167;-89
2021/08/01 04:58:09;;;;;;;24.77;15.95;;;15.50;93.60;;;;;;5057738;28;20202;-89
2021/08/01 05:00:34;;;;;;;24.37;15.20;;;15.50;93.40;;;;;;5057797;28;20259;-89
2021/08/01 05:03:04;;;;;;;24.77;15.03;;;15.50;93.40;;;;;;5057754;28;20218;-89
2021/08/01 05:05:38;;;;;;;26.13;14.30;;;15.50;93.20;;;;;;5057655;28;20184;-89
2021/08/01 05:08:05;;;;;;;24.70;12.77;;;15.50;93.30;;;;;;5057768;28;20198;-89
2021/08/01 05:10:31;;;;;;;27.37;14.97;;;15.50;93.30;;;;;;5057524;28;20187;-89
2021/08/01 05:12:57;;;;;;;23.08;14.30;;;15.60;93.30;;;;;;5057459;28;20584;-89
2021/08/01 05:15:23;;;;;;;27.90;15.87;;;15.60;93.30;;;;;;5056660;28;20210;-89
2021/08/01 05:17:49;;;;;;;23.90;15.03;;;15.60;92.90;;;;;;5057470;28;20201;-89
2021/08/01 05:20:14;;;;;;;30.13;15.13;;;15.60;93.00;;;;;;5057379;28;20186;-89
2021/08/01 05:22:40;;;;;;;25.33;15.50;;;15.70;93.10;;;;;;5057578;28;20175;-89
2021/08/01 05:25:07;;;;;;;24.03;15.07;;;15.60;92.90;;;;;;5057157;28;20214;-89
2021/08/01 05:27:32;;;;;;;33.33;15.83;;;15.70;93.10;;;;;;5057439;28;20190;-89
2021/08/01 05:29:58;;;;;;;22.50;15.90;;;15.70;93.00;;;;;;5057357;28;20179;-89
2021/08/01 05:32:24;;;;;;;21.23;14.60;;;15.80;92.90;;;;;;5056910;28;20210;-89
2021/08/01 05:34:49;;;;;;;25.30;14.53;;;15.80;92.70;;;;;;5057337;28;20200;-89
2021/08/01 05:37:15;;;;;;;27.65;15.25;;;15.80;92.60;;;;;;5057959;28;20293;-89
2021/08/01 05:39:41;;;;;;;26.70;14.48;;;15.80;92.50;;;;;;5057011;28;20262;-89
2021/08/01 05:42:06;;;;;;;24.37;14.17;;;15.80;92.50;;;;;;5057010;28;20195;-89
2021/08/01 05:44:36;;;;;;;17.70;12.50;;;15.70;92.30;;;;;;5056838;28;20235;-89
2021/08/01 05:47:06;;;;;;;22.33;12.57;;;15.70;92.20;;;;;;5056839;28;20674;-89
2021/08/01 05:49:33;;;;;;;19.37;12.77;;;15.80;92.40;;;;;;5056943;28;20262;-89
2021/08/01 05:51:59;;;;;;;22.93;13.07;;;15.70;92.60;;;;;;5056667;28;20241;-89
2021/08/01 05:54:25;;;;;;;23.50;13.97;;;15.80;92.60;;;;;;5056633;28;20202;-89
2021/08/01 05:56:51;;;;;;;31.70;14.65;;;15.80;92.50;;;;;;5057496;28;20180;-89
2021/08/01 05:59:16;;;;;;;24.08;12.93;;;15.80;92.60;;;;;;5056734;28;20270;-89
2021/08/01 06:01:42;;;;;;;22.25;13.98;;;15.80;92.60;;;;;;5074734;28;20216;-89
2021/08/01 06:04:08;;;;;;;22.33;12.50;;;15.80;92.60;;;;;;5056488;28;20195;-89
2021/08/01 06:06:33;;;;;;;26.93;13.07;;;15.80;92.20;;;;;;5057042;28;20178;-89
2021/08/01 06:09:02;;;;;;;23.20;13.15;;;15.90;92.30;;;;;;5056777;28;20718;-89
2021/08/01 06:11:28;;;;;;;22.37;14.03;;;15.90;92.20;;;;;;5056356;28;20703;-89
2021/08/01 06:13:54;;;;;;;17.93;11.43;;;16.00;92.30;;;;;;5056308;28;20287;-89
2021/08/01 06:16:19;;;;;;;26.57;13.77;;;15.90;92.20;;;;;;5056851;28;20183;-89
2021/08/01 06:18:45;;;;;;;19.85;13.40;;;16.00;92.40;;;;;;5056490;28;20546;-89
2021/08/01 06:21:19;;;;;;;20.40;13.02;;;16.00;92.20;;;;;;5056169;28;20640;-89
2021/08/01 06:23:52;;;;;;;21.40;12.43;;;16.00;92.20;;;;;;5056197;28;20207;-89
2021/08/01 06:26:22;;;;;;;19.05;12.32;;;16.10;92.10;;;;;;5056902;28;20174;-89
2021/08/01 06:28:49;;;;;;;24.02;12.00;;;16.10;91.90;;;;;;5056133;28;20167;-88
2021/08/01 06:31:15;;;;;;;22.73;12.07;;;16.20;91.50;;;;;;5056115;28;20639;-89
2021/08/01 06:33:42;;;;;;;15.85;11.45;;;16.20;91.30;;;;;;5056518;28;20211;-89
2021/08/01 06:36:10;;;;;;;22.55;12.23;;;16.20;91.10;;;;;;5056310;28;20643;-88
2021/08/01 06:38:37;;;;;;;17.60;11.18;;;16.30;91.40;;;;;;5056201;28;20176;-89
2021/08/01 06:41:03;;;;;;;26.17;11.90;;;16.30;91.40;;;;;;5055780;28;20640;-89
2021/08/01 06:43:29;;;;;;;19.45;11.48;;;16.30;91.20;;;;;;5055819;28;20801;-89
2021/08/01 06:45:55;;;;;;;20.33;11.88;;;16.30;91.30;;;;;;5055825;28;20316;-89
2021/08/01 06:48:21;;;;;;;14.82;10.57;;;16.30;91.30;;;;;;5056059;28;20206;-89
2021/08/01 06:50:47;;;;;;;24.35;11.95;;;16.20;91.20;;;;;;5055702;28;20186;-89
2021/08/01 06:53:12;;;;;;;21.33;10.50;;;16.30;91.50;;;;;;5055595;28;20206;-89
2021/08/01 06:55:38;;;;;;;15.95;10.40;;;16.30;91.50;;;;;;5055545;28;20632;-89
2021/08/01 06:58:04;;;;;;;27.20;11.77;;;16.30;91.60;;;;;;5055542;28;20179;-89
2021/08/01 07:00:29;;;;;;;15.88;11.70;;;16.20;91.50;;;;;;5055771;28;20214;-89
2021/08/01 07:02:58;;;;;;;18.98;11.48;;;16.30;91.70;;;;;;5055666;28;20599;-89
2021/08/01 07:05:25;;;;;;;20.42;11.45;;;16.40;91.70;;;;;;5055576;28;20195;-90
2021/08/01 07:07:50;;;;;;;15.15;11.30;;;16.50;91.80;;;;;;5055625;28;20236;-89
2021/08/01 07:10:17;;;;;;;18.00;10.63;;;16.70;91.50;;;;;;5055449;28;20187;-89
2021/08/01 07:12:43;;;;;;;13.57;8.93;;;16.70;91.10;;;;;;5055451;28;20285;-89
2021/08/01 07:15:15;;;;;;;16.13;10.52;;;16.80;90.60;;;;;;5055625;28;20656;-89
2021/08/01 07:17:42;;;;;;;16.13;9.10;;;16.80;90.80;;;;;;5055396;28;20199;-89
2021/08/01 07:20:10;;;;;;;20.67;11.48;;;16.80;90.70;;;;;;5055349;28;20265;-89
2021/08/01 07:22:36;;;;;;;13.18;10.50;;;16.90;91.00;;;;;;5055391;28;20172;-89
2021/08/01 07:25:03;;;;;;;18.90;10.43;;;17.00;90.70;;;;;;5096820;22;20227;-85
2021/08/01 07:27:29;;;;;;;16.08;9.82;;;16.90;90.50;;;;;;5073323;28;20179;-86
2021/08/01 07:29:55;;;;;;;15.85;10.35;;;16.90;90.10;;;;;;5055129;28;20167;-85
2021/08/01 07:32:21;;;;;;;15.95;10.07;;;16.90;90.10;;;;;;5055032;28;20199;-84
2021/08/01 07:34:48;;;;;;;19.15;9.88;;;16.90;89.80;;;;;;5054986;28;20231;-86
2021/08/01 07:37:17;;;;;;;14.63;9.80;;;16.90;89.80;;;;;;5054972;28;20269;-86
2021/08/01 07:39:43;;;;;;;22.15;9.80;;;17.00;90.10;;;;;;5057336;28;20171;-85
2021/08/01 07:42:09;;;;;;;17.70;9.98;;;17.00;89.50;;;;;;5059004;28;20183;-85
2021/08/01 07:44:45;;;;;;;12.18;9.82;;;17.00;89.20;;;;;;5076927;28;20222;-84
2021/08/01 07:47:15;;;;;;;11.40;8.95;;;17.20;89.60;;;;;;5076951;28;20151;-84
2021/08/01 07:49:41;;;;;;;17.13;9.50;;;17.10;88.80;;;;;;5058892;28;20221;-85
2021/08/01 07:52:07;;;;;;;9.10;8.02;;;17.20;89.00;;;;;;5076761;28;20245;-85
2021/08/01 07:54:33;;;;;;;14.15;9.70;;;17.10;87.90;;;;;;5076830;28;20188;-85
2021/08/01 07:56:58;;;;;;;13.52;8.27;;;17.20;88.80;;;;;;5076647;28;20175;-85
2021/08/01 07:59:24;;;;;;;12.75;8.05;;;17.10;88.20;;;;;;5076691;28;20182;-85
2021/08/01 08:01:50;;;;;;;13.00;8.30;;;17.00;88.00;;;;;;5076931;28;20251;-86
2021/08/01 08:04:15;;;;;;;12.20;7.70;;;17.10;88.60;;;;;;5076499;28;20172;-85
2021/08/01 08:06:41;;;;;;;11.45;8.05;;;17.10;88.30;;;;;;5058692;28;20601;-85
2021/08/01 08:09:07;;;;;;;9.52;7.80;;;17.10;88.40;;;;;;5058630;28;20544;-85
2021/08/01 08:11:32;;;;;;;9.45;7.82;;;17.20;87.90;;;;;;5076785;28;20175;-85
2021/08/01 08:13:58;;;;;;;12.50;8.40;;;17.20;87.80;;;;;;5076362;28;20264;-85
2021/08/01 08:16:24;;;;;;;11.95;7.75;;;17.20;88.00;;;;;;5076333;28;20692;-85
2021/08/01 08:18:50;;;;;;;10.32;8.60;;;17.30;88.00;;;;;;5058378;28;20172;-86
2021/08/01 08:21:17;;;;;;;15.95;8.38;;;17.30;87.70;;;;;;5058332;28;20191;-85
2021/08/01 08:23:42;;;;;;;12.82;8.63;;;17.20;87.70;;;;;;5058404;28;20266;-84
2021/08/01 08:26:08;;;;;;;14.70;8.27;;;17.30;88.20;;;;;;5058104;28;20667;-84
2021/08/01 08:28:34;;;;;;;8.27;7.38;;;17.50;88.50;;;;;;5058155;28;20265;-85
2021/08/01 08:30:59;;;;;;;14.95;7.95;;;17.60;87.50;;;;;;5058128;28;20181;-85
2021/08/01 08:33:25;;;;;;;11.35;8.15;;;17.60;86.70;;;;;;5057991;28;20196;-85
2021/08/01 08:35:52;;;;;;;12.93;8.35;;;17.80;87.10;;;;;;5075910;28;20187;-85
2021/08/01 08:38:18;;;;;;;12.70;7.88;;;17.90;87.10;;;;;;5057869;28;20225;-85
2021/08/01 08:40:43;;;;;;;13.98;7.55;;;17.90;86.30;;;;;;5057943;28;20551;-85
2021/08/01 08:43:09;;;;;;;9.30;6.78;;;17.70;85.30;;;;;;5075900;28;20179;-85
2021/08/01 08:45:35;;;;;;;10.95;6.90;;;17.70;86.40;;;;;;5075799;28;20195;-85
2021/08/01 08:48:03;;;;;;;10.65;6.85;;;17.60;85.70;;;;;;5057855;28;20180;-85
2021/08/01 08:50:29;;;;;;;11.60;7.10;;;17.50;86.10;;;;;;5074578;28;20183;-85
2021/08/01 08:53:02;;;;;;;13.35;7.07;;;17.40;85.90;;;;;;5076114;28;20191;-85
2021/08/01 08:55:30;;;;;;;11.65;7.20;;;17.50;86.70;;;;;;5057708;28;20328;-85
2021/08/01 08:58:02;;;;;;;12.18;7.38;;;17.70;86.70;;;;;;5075714;28;20171;-85
2021/08/01 09:00:29;;;;;;;9.55;6.47;;;17.80;86.70;;;;;;5058066;28;20182;-85
2021/08/01 09:02:54;;;;;;;9.52;6.85;;;17.80;85.00;;;;;;5075523;28;20182;-85
2021/08/01 09:05:20;;;;;;;10.45;6.95;;;17.90;86.40;;;;;;5057423;28;20195;-85
2021/08/01 09:07:46;;;;;;;9.88;7.22;;;17.90;86.30;;;;;;5075452;28;20182;-85
2021/08/01 09:10:12;;;;;;;7.93;6.85;;;17.80;86.10;;;;;;5075377;28;20176;-85
2021/08/01 09:12:44;;;;;;;8.82;6.47;;;17.70;86.00;;;;;;5075350;28;20658;-85
2021/08/01 09:15:25;;;;;;;9.63;6.32;;;17.70;85.50;;;;;;5057399;28;20244;-85
2021/08/01 09:17:55;;;;;;;10.20;6.57;;;17.90;85.70;;;;;;5057401;28;20163;-85
2021/08/01 09:20:27;;;;;;;9.52;5.90;;;18.20;85.30;;;;;;5057542;28;20183;-84
2021/08/01 09:22:59;;;;;;;8.88;6.53;;;18.40;84.50;;;;;;5057212;28;20198;-85
2021/08/01 09:25:29;;;;;;;7.60;6.25;;;18.40;83.10;;;;;;5075003;28;20310;-85
2021/08/01 09:28:05;;;;;;;12.32;6.25;;;18.70;83.70;;;;;;5057378;28;20174;-85
2021/08/01 09:30:54;;;;;;;8.75;6.57;;;18.60;83.70;;;;;;5075061;28;20185;-85
2021/08/01 09:33:34;;;;;;;8.82;5.88;;;18.70;83.10;;;;;;5074924;28;20183;-85
2021/08/01 09:36:12;;;;;;;13.43;6.32;;;18.50;83.60;;;;;;5074799;28;20555;-85
2021/08/01 09:38:49;;;;;;;7.60;5.53;;;18.30;84.00;;;;;;5056817;28;20262;-85
2021/08/01 09:41:22;;;;;;;6.80;5.75;;;18.50;84.10;;;;;;5056856;28;20177;-85
2021/08/01 09:43:51;;;;;;;9.02;5.60;;;18.60;82.70;;;;;;5074738;28;20167;-85
2021/08/01 09:46:18;;;;;;;6.25;4.72;;;18.60;82.90;;;;;;5074603;28;20195;-85
2021/08/01 09:48:44;;;;;;;6.70;5.80;;;19.00;82.90;;;;;;5074691;28;20253;-84
2021/08/01 09:51:11;;;;;;;12.02;4.68;;;19.20;81.70;;;;;;5056755;28;20265;-84
2021/08/01 09:53:39;;;;;;;4.40;4.00;;;19.20;79.90;;;;;;5056712;28;20203;-85
2021/08/01 09:56:15;;;;;;;8.00;4.63;;;18.90;80.60;;;;;;5074369;28;20179;-84
2021/08/01 09:58:43;;;;;;;5.15;4.07;;;19.10;80.40;;;;;;5074380;28;20190;-85
2021/08/01 10:01:09;;;;;;;4.72;3.72;;;19.20;80.40;;;;;;5056334;28;20171;-84
2021/08/01 10:03:46;;;;;;;7.72;4.00;;;19.10;80.10;;;;;;5074137;28;20187;-84
2021/08/01 10:06:19;;;;;;;6.32;4.05;;;19.30;80.70;;;;;;5074159;28;20197;-84
2021/08/01 10:08:46;;;;;;;6.22;4.38;;;19.40;80.80;;;;;;5056368;28;20179;-84
2021/08/01 10:11:23;;;;;;;3.47;3.15;;;19.20;80.10;;;;;;5056344;28;20195;-84
2021/08/01 10:13:54;;;;;;;7.30;3.25;;;19.20;81.30;;;;;;5074676;28;20542;-84
2021/08/01 10:16:21;;;;;;;3.08;2.10;;;19.20;80.40;;;;;;5074055;28;20207;-85
2021/08/01 10:18:48;;;;;;;5.20;2.83;;;19.00;80.50;;;;;;5074217;28;20246;-84
2021/08/01 10:21:24;;;;;;;5.80;2.78;;;18.70;80.90;;;;;;5074086;28;20182;-85
2021/08/01 10:23:57;;;;;;;10.68;3.13;;;18.60;81.60;;;;;;5055986;28;20179;-86
2021/08/01 10:26:36;;;;;;;13.82;4.28;;;18.30;82.90;;;;;;5073643;28;20199;-87
2021/08/01 10:29:06;;;;;;;9.05;3.60;;;18.00;83.90;;;;;;5055835;28;20250;-86
2021/08/01 10:31:35;;;;;;;13.65;3.67;;;17.90;84.90;;;;;;5056099;28;20168;-86
2021/08/01 10:34:13;;;;;;;11.13;2.92;;;17.80;85.60;;;;;;5073638;28;20570;-86
2021/08/01 10:36:43;;;;;;;4.40;3.22;;;17.70;86.20;;;;;;5074063;28;20624;-85
2021/08/01 10:39:13;;;;;;;10.00;3.45;;;17.70;86.70;;;;;;5055751;28;20207;-85
2021/08/01 10:41:39;;;;;;;6.60;3.53;;;17.80;87.00;;;;;;5055739;28;20190;-87
2021/08/01 10:44:09;;;;;;;5.80;2.83;;;17.80;87.40;;;;;;5073622;28;20220;-87
2021/08/01 10:46:37;;;;;;;7.10;3.50;;;17.90;87.50;;;;;;5055632;28;20171;-84
2021/08/01 10:49:05;;;;;;;6.13;3.55;;;17.80;86.70;;;;;;5055647;28;20218;-86
2021/08/01 10:51:32;;;;;;;7.18;3.20;;;17.70;87.00;;;;;;5073458;28;20172;-86
2021/08/01 10:54:19;;;;;;;9.80;3.85;;;17.60;87.00;;;;;;5055407;28;20698;-86
2021/08/01 10:56:46;;;;;;;6.75;3.50;;;17.60;87.60;;;;;;5073395;28;20538;-86
2021/08/01 10:59:50;;;;;;;9.88;3.22;;;17.50;87.80;;;;;;5073647;28;20167;-86
2021/08/01 11:02:24;;;;;;;5.53;3.20;;;17.50;88.20;;;;;;5059303;28;20229;-86
2021/08/01 11:04:51;;;;;;;5.65;3.42;;;17.40;88.40;;;;;;5073224;28;20256;-85
2021/08/01 11:07:26;;;;;;;5.30;2.58;;;17.40;88.00;;;;;;5055334;28;20175;-87
2021/08/01 11:10:07;;;;;;;2.85;2.00;;;17.30;87.30;;;;;;5055220;28;20186;-86
2021/08/01 11:12:41;;;;;;;4.75;2.13;;;17.30;87.30;;;;;;5073468;28;20610;-87
2021/08/01 11:15:14;;;;;;;4.22;1.75;;;17.20;87.50;;;;;;5054598;28;20282;-86
2021/08/01 11:17:43;;;;;;;5.95;2.15;;;17.00;87.30;;;;;;5055183;28;20175;-86
2021/08/01 11:20:12;;;;;;;4.82;2.00;;;17.00;87.70;;;;;;5055130;28;20199;-87
2021/08/01 11:22:43;;;;;;;6.30;1.90;;;17.00;87.70;;;;;;5055192;28;20210;-87
2021/08/01 11:25:44;;;;;;;3.08;2.10;;;16.80;88.20;;;;;;5054978;28;20214;-86
2021/08/01 11:28:10;;;;;;;3.67;1.90;;;16.80;88.30;;;;;;5054930;28;20182;-86
2021/08/01 11:30:54;;;;;;;5.40;2.08;;;16.90;88.70;;;;;;5073153;28;20175;-87
2021/08/01 11:33:40;;;;;;;6.45;2.15;;;16.90;88.80;;;;;;5055010;28;20194;-86
2021/08/01 11:36:18;;;;;;;9.48;2.25;;;16.90;88.70;;;;;;5072991;28;20240;-86
2021/08/01 11:38:56;;;;;;;3.50;2.03;;;16.90;87.70;;;;;;5055012;28;20159;-87
2021/08/01 11:41:41;;;;;;;4.00;2.22;;;17.00;88.60;;;;;;5069860;28;20712;-87
2021/08/01 11:44:23;;;;;;;4.20;2.40;;;17.00;88.80;;;;;;5054867;28;20171;-86
2021/08/01 11:47:08;;;;;;;5.03;2.08;;;17.00;88.30;;;;;;5054984;28;20365;-87
2021/08/01 11:49:37;;;;;;;4.95;2.00;;;17.10;88.50;;;;;;5054938;28;20662;-87
2021/08/01 11:52:05;;;;;;;2.22;1.80;;;17.20;88.70;;;;;;5072783;28;20193;-85
2021/08/01 11:54:39;;;;;;;12.27;7.50;;;17.30;88.70;;;;;;5054723;28;20804;-85
2021/08/01 11:57:07;;;;;;;5.95;3.63;;;17.40;88.60;;;;;;5072778;28;20639;-85
2021/08/01 11:59:34;;;;;;;6.30;2.80;;;17.50;87.50;;;;;;5072714;28;20171;-86
2021/08/01 12:02:01;;;;;;;6.40;1.67;;;17.40;87.00;;;;;;5072690;28;20175;-85
2021/08/01 12:04:28;;;;;;;2.92;1.90;;;17.40;86.50;;;;;;5072909;28;20188;-85
2021/08/01 12:06:55;;;;;;;2.17;1.67;;;17.30;86.10;;;;;;5054645;28;20171;-85
2021/08/01 12:09:35;;;;;;;1.90;1.70;;;17.30;86.30;;;;;;5072656;28;20167;-85
2021/08/01 12:12:03;;;;;;;4.72;2.17;;;17.40;86.30;;;;;;5072904;28;20242;-85
2021/08/01 12:14:31;;;;;;;3.10;2.00;;;17.30;86.40;;;;;;5054460;28;20188;-85
2021/08/01 12:16:57;;;;;;;4.80;2.42;;;17.20;86.50;;;;;;5054677;28;20171;-85
2021/08/01 12:19:27;;;;;;;4.75;2.13;;;17.20;86.60;;;;;;5054573;28;20173;-85
2021/08/01 12:21:57;;;;;;;5.57;2.10;;;17.20;86.80;;;;;;5054597;28;20171;-85
2021/08/01 12:24:45;;;;;;;3.47;2.50;;;17.20;87.30;;;;;;5054525;28;20547;-87
2021/08/01 12:27:18;;;;;;;6.38;2.25;;;17.20;87.60;;;;;;5076204;28;20731;-86
2021/08/01 12:29:49;;;;;;;2.58;1.80;;;17.20;87.30;;;;;;5058278;28;20172;-86
2021/08/01 12:32:28;;;;;;;5.03;2.42;;;17.10;87.70;;;;;;5058087;28;20195;-88
2021/08/01 12:35:19;;;;;;;3.67;2.20;;;17.00;88.10;;;;;;5058123;28;20248;-87
2021/08/01 12:38:08;;;;;;;3.45;1.80;;;16.70;87.90;;;;;;5058119;28;20174;-87
2021/08/01 12:40:45;;;;;;;2.75;2.00;;;16.70;88.10;;;;;;5058147;28;20600;-87
2021/08/01 12:43:15;;;;;;;2.92;1.70;;;16.70;88.20;;;;;;5058122;28;20538;-88
2021/08/01 12:45:45;;;;;;;5.32;1.92;;;16.60;87.90;;;;;;5057876;28;20203;-87
2021/08/01 12:48:24;;;;;;;3.50;1.75;;;16.30;87.40;;;;;;5075831;28;20195;-88
2021/08/01 12:50:57;;;;;;;4.50;1.85;;;16.40;88.10;;;;;;5057836;28;20179;-86